Orlando, FL

2:29 PM EST on November 21, 2014 (GMT -0500)
Orlando Sanford | Change Station
CLOSE
Current Station
Airport
Location: Sanford,
Elevation: 56 ft
Nearby Weather Stations

Elev 56 ft 28.78 °N, 81.24 °W | Updated 36 minutes ago

Clear
Clear
73 °F
Feels Like 73 °F
N
18
Wind Variable Wind from NE
Gusts 23 mph

Today
High -- | Low -- °F
--% Chance of Precip.
Yesterday
High -- | Low -- °F
Precip. -- in
6:52 AM 5:29 PM
Waning Crescent, 1% visible
Pressure 30.25 in
Visibility 10.0 miles
Clouds Clear
Dew Point 52 °F
Humidity 48%
Rainfall 0.00 in
Snow Depth Not available.
UV 5 out of 12
Pollen 4.20 out of 12
Air Quality Not available.
Flu Activity Not available.
METAR KSFB 211853Z 05016G20KT 10SM CLR 23/11 A3025 RMK AO2 SLP244 T02280111

More Conditions Fewer Conditions

Pressure 30.25 in
Visibility 10.0 miles
Clouds Clear
Dew Point 52 °F
Humidity 48%
Rainfall 0.00 in
Snow Depth Not available.
UV 5 out of 12
Pollen 4.20 out of 12
Air Quality Not available.
Flu Activity Not available.
METAR KSFB 211853Z 05016G20KT 10SM CLR 23/11 A3025 RMK AO2 SLP244 T02280111

More Conditions Fewer Conditions

10-Day Weather Forecast

Almanac

Astronomy

Nov. 21, 2014 Rise Set
Actual Time
Civil Twilight
Nautical Twilight
Astronomical Twilight
Moon
Length of Visible Light
Length of Day
Tomorrow will be .
, % of the Moon is Illuminated

Today's Extremes

State Highs State Lows

Community

WunderPhotos

Upload Photos

1,772,703 photos uploaded!

WunderBlogs® & News

Nearby

Air Quality

  Air Quality AQ Index Pollutant
Not available.

Snow Depth

Station Depth Elevation

Earthquake Activity

City Distance Mag. Time & Date
Minimum magnitude displayed is 2.5.

Coastal Water Temperatures

Place Temperature

Nearby Weather Stations